sensor_id;sensor_type;location;lat;lon;timestamp;temperature;humidity
25046;DHT22;13044;49.304;12.840;2022-07-15T00:00:04;17.60;99.90
25046;DHT22;13044;49.304;12.840;2022-07-15T00:02:32;17.50;99.90
25046;DHT22;13044;49.304;12.840;2022-07-15T00:04:59;17.40;99.90
25046;DHT22;13044;49.304;12.840;2022-07-15T00:07:26;17.40;99.90
25046;DHT22;13044;49.304;12.840;2022-07-15T00:09:53;17.40;99.90
25046;DHT22;13044;49.304;12.840;2022-07-15T00:12:39;17.30;99.90
25046;DHT22;13044;49.304;12.840;2022-07-15T00:15:10;17.30;99.90
25046;DHT22;13044;49.304;12.840;2022-07-15T00:17:38;17.30;99.90
25046;DHT22;13044;49.304;12.840;2022-07-15T00:20:07;17.20;99.90
25046;DHT22;13044;49.304;12.840;2022-07-15T00:22:34;17.20;99.90
25046;DHT22;13044;49.304;12.840;2022-07-15T00:25:01;17.10;99.90
25046;DHT22;13044;49.304;12.840;2022-07-15T00:27:28;17.10;99.90
25046;DHT22;13044;49.304;12.840;2022-07-15T00:29:55;17.00;99.90
25046;DHT22;13044;49.304;12.840;2022-07-15T00:32:22;17.00;99.90
25046;DHT22;13044;49.304;12.840;2022-07-15T00:34:50;17.10;99.90
25046;DHT22;13044;49.304;12.840;2022-07-15T00:37:19;17.00;99.90
25046;DHT22;13044;49.304;12.840;2022-07-15T00:39:47;17.00;99.90
25046;DHT22;13044;49.304;12.840;2022-07-15T00:42:14;17.00;99.90
25046;DHT22;13044;49.304;12.840;2022-07-15T00:45:00;16.90;99.90
25046;DHT22;13044;49.304;12.840;2022-07-15T00:47:27;16.80;99.90
25046;DHT22;13044;49.304;12.840;2022-07-15T00:49:54;16.80;99.90
25046;DHT22;13044;49.304;12.840;2022-07-15T00:52:23;16.80;99.90
25046;DHT22;13044;49.304;12.840;2022-07-15T00:54:51;16.80;99.90
25046;DHT22;13044;49.304;12.840;2022-07-15T00:57:20;16.80;99.90
25046;DHT22;13044;49.304;12.840;2022-07-15T00:59:48;16.80;99.90
25046;DHT22;13044;49.304;12.840;2022-07-15T01:02:15;16.80;99.90
25046;DHT22;13044;49.304;12.840;2022-07-15T01:04:42;16.80;99.90
25046;DHT22;13044;49.304;12.840;2022-07-15T01:07:09;16.90;99.90
25046;DHT22;13044;49.304;12.840;2022-07-15T01:09:36;16.80;99.90
25046;DHT22;13044;49.304;12.840;2022-07-15T01:12:03;16.80;99.90
25046;DHT22;13044;49.304;12.840;2022-07-15T01:14:30;16.80;99.90
25046;DHT22;13044;49.304;12.840;2022-07-15T01:16:57;16.80;99.90
25046;DHT22;13044;49.304;12.840;2022-07-15T01:19:24;16.80;99.90
25046;DHT22;13044;49.304;12.840;2022-07-15T01:21:51;16.70;99.90
25046;DHT22;13044;49.304;12.840;2022-07-15T01:24:17;16.50;99.90
25046;DHT22;13044;49.304;12.840;2022-07-15T01:26:44;16.40;99.90
25046;DHT22;13044;49.304;12.840;2022-07-15T01:29:11;16.40;99.90
25046;DHT22;13044;49.304;12.840;2022-07-15T01:31:38;16.30;99.90
25046;DHT22;13044;49.304;12.840;2022-07-15T01:34:06;16.20;99.90
25046;DHT22;13044;49.304;12.840;2022-07-15T01:36:33;16.10;99.90
25046;DHT22;13044;49.304;12.840;2022-07-15T01:39:00;16.10;99.90
25046;DHT22;13044;49.304;12.840;2022-07-15T01:41:47;16.10;99.90
25046;DHT22;13044;49.304;12.840;2022-07-15T01:44:14;16.10;99.90
25046;DHT22;13044;49.304;12.840;2022-07-15T01:46:42;16.10;99.90
25046;DHT22;13044;49.304;12.840;2022-07-15T01:49:09;16.10;99.90
25046;DHT22;13044;49.304;12.840;2022-07-15T01:51:57;16.10;99.90
25046;DHT22;13044;49.304;12.840;2022-07-15T01:54:25;16.10;99.90
25046;DHT22;13044;49.304;12.840;2022-07-15T01:56:54;16.10;99.90
25046;DHT22;13044;49.304;12.840;2022-07-15T01:59:21;16.10;99.90
25046;DHT22;13044;49.304;12.840;2022-07-15T02:01:52;16.10;99.90
25046;DHT22;13044;49.304;12.840;2022-07-15T02:04:21;16.10;99.90
25046;DHT22;13044;49.304;12.840;2022-07-15T02:06:49;16.10;99.90
25046;DHT22;13044;49.304;12.840;2022-07-15T02:09:16;16.10;99.90
25046;DHT22;13044;49.304;12.840;2022-07-15T02:11:43;16.10;99.90
25046;DHT22;13044;49.304;12.840;2022-07-15T02:14:10;16.00;99.90
25046;DHT22;13044;49.304;12.840;2022-07-15T02:16:38;15.90;99.90
25046;DHT22;13044;49.304;12.840;2022-07-15T02:19:06;15.90;99.90
25046;DHT22;13044;49.304;12.840;2022-07-15T02:21:35;15.80;99.90
25046;DHT22;13044;49.304;12.840;2022-07-15T02:24:03;15.70;99.90
25046;DHT22;13044;49.304;12.840;2022-07-15T02:26:30;15.60;99.90
25046;DHT22;13044;49.304;12.840;2022-07-15T02:28:57;15.60;99.90
25046;DHT22;13044;49.304;12.840;2022-07-15T02:31:24;15.60;99.90
25046;DHT22;13044;49.304;12.840;2022-07-15T02:33:52;15.60;99.90
25046;DHT22;13044;49.304;12.840;2022-07-15T02:36:19;15.70;99.90
25046;DHT22;13044;49.304;12.840;2022-07-15T02:38:46;15.60;99.90
25046;DHT22;13044;49.304;12.840;2022-07-15T02:41:13;15.60;99.90
25046;DHT22;13044;49.304;12.840;2022-07-15T02:43:41;15.50;99.90
25046;DHT22;13044;49.304;12.840;2022-07-15T02:46:09;15.40;99.90
25046;DHT22;13044;49.304;12.840;2022-07-15T02:48:37;15.50;99.90
25046;DHT22;13044;49.304;12.840;2022-07-15T02:51:05;15.50;99.90
25046;DHT22;13044;49.304;12.840;2022-07-15T02:53:33;15.50;99.90
25046;DHT22;13044;49.304;12.840;2022-07-15T02:56:01;15.50;99.90
25046;DHT22;13044;49.304;12.840;2022-07-15T02:58:30;15.40;99.90
25046;DHT22;13044;49.304;12.840;2022-07-15T03:01:00;15.20;99.90
25046;DHT22;13044;49.304;12.840;2022-07-15T03:03:27;15.20;99.90
25046;DHT22;13044;49.304;12.840;2022-07-15T03:05:56;15.10;99.90
25046;DHT22;13044;49.304;12.840;2022-07-15T03:08:24;15.00;99.90
25046;DHT22;13044;49.304;12.840;2022-07-15T03:10:51;15.10;99.90
25046;DHT22;13044;49.304;12.840;2022-07-15T03:13:18;15.10;99.90
25046;DHT22;13044;49.304;12.840;2022-07-15T03:15:45;15.10;99.90
25046;DHT22;13044;49.304;12.840;2022-07-15T03:18:12;15.00;99.90
25046;DHT22;13044;49.304;12.840;2022-07-15T03:20:39;15.00;99.90
25046;DHT22;13044;49.304;12.840;2022-07-15T03:23:13;15.00;99.90
25046;DHT22;13044;49.304;12.840;2022-07-15T03:25:40;15.00;99.90
25046;DHT22;13044;49.304;12.840;2022-07-15T03:28:07;15.00;99.90
25046;DHT22;13044;49.304;12.840;2022-07-15T03:30:34;15.00;99.90
25046;DHT22;13044;49.304;12.840;2022-07-15T03:33:02;15.00;99.90
25046;DHT22;13044;49.304;12.840;2022-07-15T03:35:29;15.00;99.90
25046;DHT22;13044;49.304;12.840;2022-07-15T03:37:56;15.00;99.90
25046;DHT22;13044;49.304;12.840;2022-07-15T03:40:23;14.90;99.90
25046;DHT22;13044;49.304;12.840;2022-07-15T03:42:49;14.90;99.90
25046;DHT22;13044;49.304;12.840;2022-07-15T03:45:16;14.80;99.90
25046;DHT22;13044;49.304;12.840;2022-07-15T03:47:43;14.70;99.90
25046;DHT22;13044;49.304;12.840;2022-07-15T03:50:10;14.80;99.90
25046;DHT22;13044;49.304;12.840;2022-07-15T03:52:39;14.80;99.90
25046;DHT22;13044;49.304;12.840;2022-07-15T03:55:07;14.80;99.90
25046;DHT22;13044;49.304;12.840;2022-07-15T03:57:37;14.90;99.90
25046;DHT22;13044;49.304;12.840;2022-07-15T04:00:05;14.90;99.90
25046;DHT22;13044;49.304;12.840;2022-07-15T04:02:33;15.00;99.90
25046;DHT22;13044;49.304;12.840;2022-07-15T04:05:00;14.90;99.90
25046;DHT22;13044;49.304;12.840;2022-07-15T04:07:27;14.90;99.90
25046;DHT22;13044;49.304;12.840;2022-07-15T04:09:54;14.90;99.90
25046;DHT22;13044;49.304;12.840;2022-07-15T04:12:20;14.80;99.90
25046;DHT22;13044;49.304;12.840;2022-07-15T04:14:47;14.60;99.90
25046;DHT22;13044;49.304;12.840;2022-07-15T04:17:14;14.50;99.90
25046;DHT22;13044;49.304;12.840;2022-07-15T04:19:41;14.40;99.90
25046;DHT22;13044;49.304;12.840;2022-07-15T04:22:08;14.30;99.90
25046;DHT22;13044;49.304;12.840;2022-07-15T04:24:35;14.30;99.90
25046;DHT22;13044;49.304;12.840;2022-07-15T04:27:02;14.30;99.90
25046;DHT22;13044;49.304;12.840;2022-07-15T04:29:29;14.40;99.90
25046;DHT22;13044;49.304;12.840;2022-07-15T04:31:56;14.50;99.90
25046;DHT22;13044;49.304;12.840;2022-07-15T04:34:23;14.60;99.90
25046;DHT22;13044;49.304;12.840;2022-07-15T04:36:50;14.70;99.90
25046;DHT22;13044;49.304;12.840;2022-07-15T04:39:17;14.70;99.90
25046;DHT22;13044;49.304;12.840;2022-07-15T04:41:44;14.70;99.90
25046;DHT22;13044;49.304;12.840;2022-07-15T04:44:11;14.70;99.90
25046;DHT22;13044;49.304;12.840;2022-07-15T04:46:38;14.60;99.90
25046;DHT22;13044;49.304;12.840;2022-07-15T04:49:05;14.70;99.90
25046;DHT22;13044;49.304;12.840;2022-07-15T04:52:00;14.70;99.90
25046;DHT22;13044;49.304;12.840;2022-07-15T04:54:27;14.80;99.90
25046;DHT22;13044;49.304;12.840;2022-07-15T04:56:54;14.80;99.90
25046;DHT22;13044;49.304;12.840;2022-07-15T04:59:21;14.80;99.90
25046;DHT22;13044;49.304;12.840;2022-07-15T05:01:48;14.90;99.90
25046;DHT22;13044;49.304;12.840;2022-07-15T05:04:15;15.10;99.90
25046;DHT22;13044;49.304;12.840;2022-07-15T05:06:42;15.20;99.90
25046;DHT22;13044;49.304;12.840;2022-07-15T05:09:09;15.40;99.90
25046;DHT22;13044;49.304;12.840;2022-07-15T05:11:36;15.60;99.90
25046;DHT22;13044;49.304;12.840;2022-07-15T05:14:03;15.70;99.90
25046;DHT22;13044;49.304;12.840;2022-07-15T05:16:30;15.90;99.90
25046;DHT22;13044;49.304;12.840;2022-07-15T05:18:57;16.00;99.90
25046;DHT22;13044;49.304;12.840;2022-07-15T05:21:24;16.40;99.90
25046;DHT22;13044;49.304;12.840;2022-07-15T05:23:52;17.30;99.90
25046;DHT22;13044;49.304;12.840;2022-07-15T05:26:39;18.50;99.90
25046;DHT22;13044;49.304;12.840;2022-07-15T05:29:11;19.80;99.90
25046;DHT22;13044;49.304;12.840;2022-07-15T05:31:38;20.80;99.90
25046;DHT22;13044;49.304;12.840;2022-07-15T05:34:05;21.80;99.90
25046;DHT22;13044;49.304;12.840;2022-07-15T05:36:31;22.60;99.90
25046;DHT22;13044;49.304;12.840;2022-07-15T05:38:59;23.20;99.90
25046;DHT22;13044;49.304;12.840;2022-07-15T05:41:26;23.60;99.90
25046;DHT22;13044;49.304;12.840;2022-07-15T05:43:52;23.60;99.90
25046;DHT22;13044;49.304;12.840;2022-07-15T05:46:19;22.80;99.90
25046;DHT22;13044;49.304;12.840;2022-07-15T05:48:46;21.50;99.90
25046;DHT22;13044;49.304;12.840;2022-07-15T05:51:13;20.30;99.90
25046;DHT22;13044;49.304;12.840;2022-07-15T05:53:41;19.40;99.90
25046;DHT22;13044;49.304;12.840;2022-07-15T05:56:08;18.80;99.90
25046;DHT22;13044;49.304;12.840;2022-07-15T05:58:36;18.30;99.90
25046;DHT22;13044;49.304;12.840;2022-07-15T06:01:03;18.00;99.90
25046;DHT22;13044;49.304;12.840;2022-07-15T06:03:31;17.70;99.90
25046;DHT22;13044;49.304;12.840;2022-07-15T06:05:59;17.50;99.90
25046;DHT22;13044;49.304;12.840;2022-07-15T06:08:26;17.40;99.90
25046;DHT22;13044;49.304;12.840;2022-07-15T06:10:53;17.20;99.90
25046;DHT22;13044;49.304;12.840;2022-07-15T06:13:20;17.20;99.90
25046;DHT22;13044;49.304;12.840;2022-07-15T06:15:47;17.20;99.90
25046;DHT22;13044;49.304;12.840;2022-07-15T06:18:15;17.30;99.90
25046;DHT22;13044;49.304;12.840;2022-07-15T06:20:42;17.30;99.90
25046;DHT22;13044;49.304;12.840;2022-07-15T06:23:09;17.30;99.90
25046;DHT22;13044;49.304;12.840;2022-07-15T06:25:37;17.30;99.90
25046;DHT22;13044;49.304;12.840;2022-07-15T06:28:03;17.30;99.90
25046;DHT22;13044;49.304;12.840;2022-07-15T06:30:30;17.30;99.90
25046;DHT22;13044;49.304;12.840;2022-07-15T06:32:57;17.30;99.90
25046;DHT22;13044;49.304;12.840;2022-07-15T06:35:25;17.40;99.90
25046;DHT22;13044;49.304;12.840;2022-07-15T06:37:52;17.50;99.90
25046;DHT22;13044;49.304;12.840;2022-07-15T06:40:19;17.60;99.90
25046;DHT22;13044;49.304;12.840;2022-07-15T06:42:45;17.60;99.90
25046;DHT22;13044;49.304;12.840;2022-07-15T06:45:13;17.70;99.90
25046;DHT22;13044;49.304;12.840;2022-07-15T06:47:41;17.80;99.90
25046;DHT22;13044;49.304;12.840;2022-07-15T06:50:10;17.80;99.90
25046;DHT22;13044;49.304;12.840;2022-07-15T06:52:37;17.90;99.90
25046;DHT22;13044;49.304;12.840;2022-07-15T06:55:04;18.10;99.90
25046;DHT22;13044;49.304;12.840;2022-07-15T06:57:32;18.10;99.90
25046;DHT22;13044;49.304;12.840;2022-07-15T07:00:01;18.10;99.90
25046;DHT22;13044;49.304;12.840;2022-07-15T07:02:28;18.10;99.90
25046;DHT22;13044;49.304;12.840;2022-07-15T07:04:55;18.20;99.90
25046;DHT22;13044;49.304;12.840;2022-07-15T07:07:23;18.30;99.90
25046;DHT22;13044;49.304;12.840;2022-07-15T07:09:50;18.30;99.90
25046;DHT22;13044;49.304;12.840;2022-07-15T07:12:16;18.40;99.90
25046;DHT22;13044;49.304;12.840;2022-07-15T07:14:43;18.40;99.90
25046;DHT22;13044;49.304;12.840;2022-07-15T07:17:10;18.40;99.90
25046;DHT22;13044;49.304;12.840;2022-07-15T07:19:37;18.30;99.90
25046;DHT22;13044;49.304;12.840;2022-07-15T07:22:04;18.30;99.90
25046;DHT22;13044;49.304;12.840;2022-07-15T07:24:31;18.30;99.90
25046;DHT22;13044;49.304;12.840;2022-07-15T07:26:58;18.30;99.90
25046;DHT22;13044;49.304;12.840;2022-07-15T07:29:32;18.40;99.90
25046;DHT22;13044;49.304;12.840;2022-07-15T07:31:59;18.50;99.90
25046;DHT22;13044;49.304;12.840;2022-07-15T07:34:26;18.60;99.90
25046;DHT22;13044;49.304;12.840;2022-07-15T07:36:53;18.70;99.90
25046;DHT22;13044;49.304;12.840;2022-07-15T07:39:20;18.70;99.90
25046;DHT22;13044;49.304;12.840;2022-07-15T07:41:47;18.80;99.90
25046;DHT22;13044;49.304;12.840;2022-07-15T07:44:20;18.90;99.90
25046;DHT22;13044;49.304;12.840;2022-07-15T07:46:47;19.10;99.90
25046;DHT22;13044;49.304;12.840;2022-07-15T07:49:14;19.10;99.90
25046;DHT22;13044;49.304;12.840;2022-07-15T07:52:02;19.10;99.90
25046;DHT22;13044;49.304;12.840;2022-07-15T07:54:31;19.30;99.90
25046;DHT22;13044;49.304;12.840;2022-07-15T07:56:59;19.40;99.90
25046;DHT22;13044;49.304;12.840;2022-07-15T07:59:26;19.40;99.90
25046;DHT22;13044;49.304;12.840;2022-07-15T08:01:53;19.40;99.90
25046;DHT22;13044;49.304;12.840;2022-07-15T08:04:20;19.40;99.90
25046;DHT22;13044;49.304;12.840;2022-07-15T08:06:48;19.60;99.90
25046;DHT22;13044;49.304;12.840;2022-07-15T08:09:15;19.80;99.90
25046;DHT22;13044;49.304;12.840;2022-07-15T08:11:44;20.00;99.90
25046;DHT22;13044;49.304;12.840;2022-07-15T08:14:11;20.30;99.90
25046;DHT22;13044;49.304;12.840;2022-07-15T08:16:38;20.60;99.90
25046;DHT22;13044;49.304;12.840;2022-07-15T08:19:09;20.70;99.90
25046;DHT22;13044;49.304;12.840;2022-07-15T08:21:40;20.70;99.90
25046;DHT22;13044;49.304;12.840;2022-07-15T08:24:07;20.80;99.90
25046;DHT22;13044;49.304;12.840;2022-07-15T08:26:35;20.80;99.90
25046;DHT22;13044;49.304;12.840;2022-07-15T08:29:02;20.80;99.90
25046;DHT22;13044;49.304;12.840;2022-07-15T08:31:33;20.80;99.90
25046;DHT22;13044;49.304;12.840;2022-07-15T08:34:02;20.80;99.90
25046;DHT22;13044;49.304;12.840;2022-07-15T08:36:30;20.90;99.90
25046;DHT22;13044;49.304;12.840;2022-07-15T08:38:57;21.00;99.90
25046;DHT22;13044;49.304;12.840;2022-07-15T08:41:24;20.90;99.40
25046;DHT22;13044;49.304;12.840;2022-07-15T08:43:51;20.90;99.50
25046;DHT22;13044;49.304;12.840;2022-07-15T08:46:19;21.00;97.30
25046;DHT22;13044;49.304;12.840;2022-07-15T08:48:50;20.90;98.00
25046;DHT22;13044;49.304;12.840;2022-07-15T08:51:21;20.70;99.00
25046;DHT22;13044;49.304;12.840;2022-07-15T08:53:51;20.50;99.10
25046;DHT22;13044;49.304;12.840;2022-07-15T08:56:19;20.50;99.90
25046;DHT22;13044;49.304;12.840;2022-07-15T08:58:47;20.60;99.90
25046;DHT22;13044;49.304;12.840;2022-07-15T09:01:30;20.70;99.90
25046;DHT22;13044;49.304;12.840;2022-07-15T09:03:58;20.90;99.90
25046;DHT22;13044;49.304;12.840;2022-07-15T09:11:58;21.00;96.90
25046;DHT22;13044;49.304;12.840;2022-07-15T09:14:42;20.90;97.10
25046;DHT22;13044;49.304;12.840;2022-07-15T09:22:32;21.30;98.00
25046;DHT22;13044;49.304;12.840;2022-07-15T09:25:13;21.40;98.10
25046;DHT22;13044;49.304;12.840;2022-07-15T09:27:42;21.60;96.00
25046;DHT22;13044;49.304;12.840;2022-07-15T09:30:19;21.80;96.80
25046;DHT22;13044;49.304;12.840;2022-07-15T09:33:14;21.90;96.00
25046;DHT22;13044;49.304;12.840;2022-07-15T09:36:03;22.10;92.70
25046;DHT22;13044;49.304;12.840;2022-07-15T09:38:44;22.10;93.30
25046;DHT22;13044;49.304;12.840;2022-07-15T09:41:34;22.00;96.00
25046;DHT22;13044;49.304;12.840;2022-07-15T09:46:49;22.40;94.10
25046;DHT22;13044;49.304;12.840;2022-07-15T09:54:46;22.70;93.70
25046;DHT22;13044;49.304;12.840;2022-07-15T09:57:17;22.70;92.60
25046;DHT22;13044;49.304;12.840;2022-07-15T09:59:47;22.80;92.60
25046;DHT22;13044;49.304;12.840;2022-07-15T10:02:15;22.90;92.10
25046;DHT22;13044;49.304;12.840;2022-07-15T10:04:42;22.90;91.80
25046;DHT22;13044;49.304;12.840;2022-07-15T10:07:12;22.90;92.70
25046;DHT22;13044;49.304;12.840;2022-07-15T10:09:57;23.10;90.10
25046;DHT22;13044;49.304;12.840;2022-07-15T10:25:46;22.90;87.70
25046;DHT22;13044;49.304;12.840;2022-07-15T10:28:28;22.70;90.60
25046;DHT22;13044;49.304;12.840;2022-07-15T10:31:20;22.40;91.30
25046;DHT22;13044;49.304;12.840;2022-07-15T10:39:22;22.40;91.10
25046;DHT22;13044;49.304;12.840;2022-07-15T10:44:35;22.40;91.30
25046;DHT22;13044;49.304;12.840;2022-07-15T10:49:47;22.70;90.30
25046;DHT22;13044;49.304;12.840;2022-07-15T10:52:26;22.90;89.30
25046;DHT22;13044;49.304;12.840;2022-07-15T11:03:17;23.00;89.20
25046;DHT22;13044;49.304;12.840;2022-07-15T11:13:45;22.80;89.30
25046;DHT22;13044;49.304;12.840;2022-07-15T11:16:15;22.80;85.40
25046;DHT22;13044;49.304;12.840;2022-07-15T11:18:55;23.00;88.20
25046;DHT22;13044;49.304;12.840;2022-07-15T11:21:24;23.20;88.40
25046;DHT22;13044;49.304;12.840;2022-07-15T11:23:52;23.50;87.20
25046;DHT22;13044;49.304;12.840;2022-07-15T11:26:23;23.70;84.20
25046;DHT22;13044;49.304;12.840;2022-07-15T11:29:13;23.70;79.60
25046;DHT22;13044;49.304;12.840;2022-07-15T11:31:42;23.80;83.20
25046;DHT22;13044;49.304;12.840;2022-07-15T11:34:09;24.00;84.30
25046;DHT22;13044;49.304;12.840;2022-07-15T11:36:37;24.30;80.90
25046;DHT22;13044;49.304;12.840;2022-07-15T11:39:04;24.40;77.10
25046;DHT22;13044;49.304;12.840;2022-07-15T11:41:31;24.30;78.80
25046;DHT22;13044;49.304;12.840;2022-07-15T11:44:16;24.40;80.00
25046;DHT22;13044;49.304;12.840;2022-07-15T11:47:00;24.40;78.30
25046;DHT22;13044;49.304;12.840;2022-07-15T11:49:28;24.40;76.50
25046;DHT22;13044;49.304;12.840;2022-07-15T11:52:00;24.30;79.50
25046;DHT22;13044;49.304;12.840;2022-07-15T11:54:27;24.10;77.20
25046;DHT22;13044;49.304;12.840;2022-07-15T11:57:02;23.90;79.40
25046;DHT22;13044;49.304;12.840;2022-07-15T11:59:32;23.70;75.30
25046;DHT22;13044;49.304;12.840;2022-07-15T12:04:39;23.90;74.10
25046;DHT22;13044;49.304;12.840;2022-07-15T12:07:08;23.80;72.10
25046;DHT22;13044;49.304;12.840;2022-07-15T12:09:43;23.70;73.00
25046;DHT22;13044;49.304;12.840;2022-07-15T12:12:16;23.70;72.30
25046;DHT22;13044;49.304;12.840;2022-07-15T12:14:48;23.60;73.60
25046;DHT22;13044;49.304;12.840;2022-07-15T12:17:15;23.70;76.20
25046;DHT22;13044;49.304;12.840;2022-07-15T12:19:47;23.80;73.20
25046;DHT22;13044;49.304;12.840;2022-07-15T12:22:17;23.90;74.00
25046;DHT22;13044;49.304;12.840;2022-07-15T12:24:46;24.00;71.60
25046;DHT22;13044;49.304;12.840;2022-07-15T12:27:40;24.10;71.70
25046;DHT22;13044;49.304;12.840;2022-07-15T12:30:08;23.80;74.80
25046;DHT22;13044;49.304;12.840;2022-07-15T12:32:37;23.70;70.30
25046;DHT22;13044;49.304;12.840;2022-07-15T12:35:06;23.60;75.60
25046;DHT22;13044;49.304;12.840;2022-07-15T12:45:12;23.70;73.80
25046;DHT22;13044;49.304;12.840;2022-07-15T12:48:10;23.60;73.30
25046;DHT22;13044;49.304;12.840;2022-07-15T12:53:23;23.70;73.10
25046;DHT22;13044;49.304;12.840;2022-07-15T12:55:53;24.00;73.00
25046;DHT22;13044;49.304;12.840;2022-07-15T12:58:25;24.10;68.90
25046;DHT22;13044;49.304;12.840;2022-07-15T13:03:41;24.10;73.80
25046;DHT22;13044;49.304;12.840;2022-07-15T13:06:08;24.20;76.20
25046;DHT22;13044;49.304;12.840;2022-07-15T13:08:37;24.40;70.90
25046;DHT22;13044;49.304;12.840;2022-07-15T13:11:07;24.50;68.20
25046;DHT22;13044;49.304;12.840;2022-07-15T13:13:38;24.50;68.30
25046;DHT22;13044;49.304;12.840;2022-07-15T13:16:06;24.30;68.00
25046;DHT22;13044;49.304;12.840;2022-07-15T13:18:35;24.20;68.40
25046;DHT22;13044;49.304;12.840;2022-07-15T13:21:03;24.20;69.00
25046;DHT22;13044;49.304;12.840;2022-07-15T13:23:31;24.20;66.60
25046;DHT22;13044;49.304;12.840;2022-07-15T13:25:58;24.20;67.60
25046;DHT22;13044;49.304;12.840;2022-07-15T13:28:26;24.30;67.30
25046;DHT22;13044;49.304;12.840;2022-07-15T13:30:53;24.30;68.80
25046;DHT22;13044;49.304;12.840;2022-07-15T13:33:21;24.40;69.10
25046;DHT22;13044;49.304;12.840;2022-07-15T13:35:49;24.50;71.00
25046;DHT22;13044;49.304;12.840;2022-07-15T13:38:16;24.60;66.20
25046;DHT22;13044;49.304;12.840;2022-07-15T13:40:43;24.60;66.40
25046;DHT22;13044;49.304;12.840;2022-07-15T13:43:10;24.60;67.00
25046;DHT22;13044;49.304;12.840;2022-07-15T13:45:37;24.70;68.00
25046;DHT22;13044;49.304;12.840;2022-07-15T13:48:12;24.80;67.80
25046;DHT22;13044;49.304;12.840;2022-07-15T13:50:39;24.90;65.20
25046;DHT22;13044;49.304;12.840;2022-07-15T13:53:24;24.70;65.20
25046;DHT22;13044;49.304;12.840;2022-07-15T13:55:51;24.60;65.70
25046;DHT22;13044;49.304;12.840;2022-07-15T13:58:18;24.70;65.90
25046;DHT22;13044;49.304;12.840;2022-07-15T14:00:45;24.60;65.30
25046;DHT22;13044;49.304;12.840;2022-07-15T14:03:12;24.60;62.80
25046;DHT22;13044;49.304;12.840;2022-07-15T14:05:39;24.50;65.00
25046;DHT22;13044;49.304;12.840;2022-07-15T14:08:06;24.50;66.30
25046;DHT22;13044;49.304;12.840;2022-07-15T14:10:33;24.60;64.80
25046;DHT22;13044;49.304;12.840;2022-07-15T14:13:00;24.50;66.50
25046;DHT22;13044;49.304;12.840;2022-07-15T14:15:28;24.50;68.60
25046;DHT22;13044;49.304;12.840;2022-07-15T14:18:03;24.50;63.90
25046;DHT22;13044;49.304;12.840;2022-07-15T14:20:30;24.50;65.10
25046;DHT22;13044;49.304;12.840;2022-07-15T14:22:58;24.40;66.50
25046;DHT22;13044;49.304;12.840;2022-07-15T14:25:25;24.40;67.70
25046;DHT22;13044;49.304;12.840;2022-07-15T14:27:52;24.50;66.70
25046;DHT22;13044;49.304;12.840;2022-07-15T14:30:21;24.70;64.70
25046;DHT22;13044;49.304;12.840;2022-07-15T14:32:49;24.70;63.90
25046;DHT22;13044;49.304;12.840;2022-07-15T14:35:16;24.70;65.50
25046;DHT22;13044;49.304;12.840;2022-07-15T14:37:43;24.80;63.00
25046;DHT22;13044;49.304;12.840;2022-07-15T14:40:10;25.00;64.60
25046;DHT22;13044;49.304;12.840;2022-07-15T14:42:37;25.00;66.70
25046;DHT22;13044;49.304;12.840;2022-07-15T14:45:06;25.20;63.80
25046;DHT22;13044;49.304;12.840;2022-07-15T14:47:34;25.20;62.50
25046;DHT22;13044;49.304;12.840;2022-07-15T14:50:02;25.00;63.30
25046;DHT22;13044;49.304;12.840;2022-07-15T14:52:29;25.10;62.80
25046;DHT22;13044;49.304;12.840;2022-07-15T14:54:56;24.90;62.40
25046;DHT22;13044;49.304;12.840;2022-07-15T14:57:22;24.80;65.10
25046;DHT22;13044;49.304;12.840;2022-07-15T14:59:49;24.80;63.40
25046;DHT22;13044;49.304;12.840;2022-07-15T15:02:16;24.80;64.00
25046;DHT22;13044;49.304;12.840;2022-07-15T15:04:43;24.80;67.40
25046;DHT22;13044;49.304;12.840;2022-07-15T15:07:10;24.80;68.60
25046;DHT22;13044;49.304;12.840;2022-07-15T15:09:37;24.90;68.60
25046;DHT22;13044;49.304;12.840;2022-07-15T15:12:04;24.90;65.30
25046;DHT22;13044;49.304;12.840;2022-07-15T15:14:35;25.10;64.00
25046;DHT22;13044;49.304;12.840;2022-07-15T15:17:03;25.10;62.90
25046;DHT22;13044;49.304;12.840;2022-07-15T15:19:35;25.10;63.70
25046;DHT22;13044;49.304;12.840;2022-07-15T15:22:03;25.00;64.40
25046;DHT22;13044;49.304;12.840;2022-07-15T15:24:32;25.00;63.90
25046;DHT22;13044;49.304;12.840;2022-07-15T15:27:00;25.10;66.40
25046;DHT22;13044;49.304;12.840;2022-07-15T15:29:28;25.20;63.50
25046;DHT22;13044;49.304;12.840;2022-07-15T15:31:56;25.20;63.00
25046;DHT22;13044;49.304;12.840;2022-07-15T15:34:24;25.30;63.20
25046;DHT22;13044;49.304;12.840;2022-07-15T15:36:50;25.50;59.10
25046;DHT22;13044;49.304;12.840;2022-07-15T15:39:17;25.40;62.90
25046;DHT22;13044;49.304;12.840;2022-07-15T15:41:44;25.40;61.70
25046;DHT22;13044;49.304;12.840;2022-07-15T15:44:12;25.40;59.10
25046;DHT22;13044;49.304;12.840;2022-07-15T15:46:40;25.40;59.80
25046;DHT22;13044;49.304;12.840;2022-07-15T15:49:07;25.40;59.40
25046;DHT22;13044;49.304;12.840;2022-07-15T15:51:34;25.40;60.80
25046;DHT22;13044;49.304;12.840;2022-07-15T15:54:01;25.30;59.40
25046;DHT22;13044;49.304;12.840;2022-07-15T15:56:28;25.10;63.90
25046;DHT22;13044;49.304;12.840;2022-07-15T15:58:55;25.10;65.30
25046;DHT22;13044;49.304;12.840;2022-07-15T16:01:22;25.20;60.80
25046;DHT22;13044;49.304;12.840;2022-07-15T16:03:49;25.20;62.90
25046;DHT22;13044;49.304;12.840;2022-07-15T16:06:16;25.30;61.00
25046;DHT22;13044;49.304;12.840;2022-07-15T16:08:49;25.40;62.40
25046;DHT22;13044;49.304;12.840;2022-07-15T16:11:17;25.60;61.80
25046;DHT22;13044;49.304;12.840;2022-07-15T16:13:45;25.60;62.60
25046;DHT22;13044;49.304;12.840;2022-07-15T16:16:13;25.80;60.50
25046;DHT22;13044;49.304;12.840;2022-07-15T16:18:40;26.20;58.30
25046;DHT22;13044;49.304;12.840;2022-07-15T16:21:07;26.10;58.80
25046;DHT22;13044;49.304;12.840;2022-07-15T16:23:35;26.20;59.90
25046;DHT22;13044;49.304;12.840;2022-07-15T16:26:02;26.10;59.10
25046;DHT22;13044;49.304;12.840;2022-07-15T16:28:29;26.20;58.70
25046;DHT22;13044;49.304;12.840;2022-07-15T16:30:56;26.50;57.90
25046;DHT22;13044;49.304;12.840;2022-07-15T16:33:23;26.80;56.80
25046;DHT22;13044;49.304;12.840;2022-07-15T16:35:50;27.00;56.30
25046;DHT22;13044;49.304;12.840;2022-07-15T16:38:17;26.80;57.10
25046;DHT22;13044;49.304;12.840;2022-07-15T16:40:44;26.80;57.10